createdAt,value
2017-01-20T00:00:52.288Z,90.17
2017-01-20T00:01:52.241Z,89.98
2017-01-20T00:02:52.196Z,89.89
2017-01-20T00:03:52.150Z,90.64
2017-01-20T00:04:52.101Z,90.83
2017-01-20T00:05:52.056Z,90.83
2017-01-20T00:06:52.009Z,91.02
2017-01-20T00:07:51.964Z,91.02
2017-01-20T00:08:51.917Z,90.83
2017-01-20T00:09:51.870Z,91.11
2017-01-20T00:10:51.824Z,91.2
2017-01-20T00:11:51.777Z,91.2
2017-01-20T00:12:51.731Z,91.2
2017-01-20T00:13:51.686Z,90.83
2017-01-20T00:14:51.641Z,91.11
2017-01-20T00:15:51.591Z,90.26
2017-01-20T00:16:51.546Z,90.73
2017-01-20T00:17:51.499Z,90.36
2017-01-20T00:18:51.453Z,90.08
2017-01-20T00:19:51.410Z,90.36
2017-01-20T00:20:51.360Z,89.98
2017-01-20T00:21:51.314Z,90.55
2017-01-20T00:22:51.267Z,90.26
2017-01-20T00:23:51.221Z,90.64
2017-01-20T00:24:51.173Z,90.36
2017-01-20T00:25:51.128Z,90.26
2017-01-20T00:26:51.081Z,90.55
2017-01-20T00:27:51.035Z,90.45
2017-01-20T00:28:50.989Z,91.2
2017-01-20T00:29:50.941Z,90.83
2017-01-20T00:30:50.896Z,90.92
2017-01-20T00:31:50.850Z,91.49
2017-01-20T00:32:50.803Z,91.02
2017-01-20T00:33:50.757Z,91.49
2017-01-20T00:34:50.709Z,91.02
2017-01-20T00:35:50.665Z,91.49
2017-01-20T00:36:50.618Z,91.02
2017-01-20T00:37:50.570Z,91.49
2017-01-20T00:38:50.525Z,91.11
2017-01-20T00:39:50.479Z,91.2
2017-01-20T00:40:50.431Z,91.39
2017-01-20T00:41:50.386Z,91.2
2017-01-20T00:42:50.340Z,91.2
2017-01-20T00:43:50.295Z,91.2
2017-01-20T00:44:50.246Z,91.3
2017-01-20T00:45:50.201Z,90.73
2017-01-20T00:46:50.153Z,91.2
2017-01-20T00:47:50.107Z,91.06
2017-01-20T00:48:50.060Z,90.73
2017-01-20T00:49:50.018Z,91.16
2017-01-20T00:50:49.967Z,91.44
2017-01-20T00:51:49.920Z,91.44
2017-01-20T00:52:49.874Z,91.63
2017-01-20T00:53:49.826Z,91.35
2017-01-20T00:54:49.783Z,91.53
2017-01-20T00:55:49.732Z,91.63
2017-01-20T00:56:49.688Z,91.63
2017-01-20T00:57:49.642Z,92.1
2017-01-20T00:58:49.598Z,92.1
2017-01-20T00:59:49.548Z,92.29
2017-01-20T01:00:49.501Z,92.38
2017-01-20T01:01:49.464Z,92.1
2017-01-20T01:02:49.409Z,92.1
2017-01-20T01:03:49.362Z,92
2017-01-20T01:04:49.316Z,92.19
2017-01-20T01:05:49.269Z,92.29
2017-01-20T01:06:49.222Z,92.38
2017-01-20T01:07:49.178Z,92.1
2017-01-20T01:08:49.129Z,93.04
2017-01-20T01:09:49.083Z,93.04
2017-01-20T01:10:49.041Z,92.85
2017-01-20T01:11:48.989Z,92.95
2017-01-20T01:12:48.943Z,93.04
2017-01-20T01:13:48.895Z,92.19
2017-01-20T01:14:48.848Z,92.38
2017-01-20T01:15:48.800Z,92.38
2017-01-20T01:16:48.758Z,92.38
2017-01-20T01:17:48.712Z,92.38
2017-01-20T01:18:48.662Z,92.47
2017-01-20T01:19:48.616Z,92.57
2017-01-20T01:20:48.567Z,92.29
2017-01-20T01:21:48.522Z,92.47
2017-01-20T01:22:48.475Z,92.47
2017-01-20T01:23:48.428Z,92.19
2017-01-20T01:24:48.379Z,92.76
2017-01-20T01:25:48.339Z,92.66
2017-01-20T01:26:48.288Z,93.04
2017-01-20T01:27:48.241Z,93.04
2017-01-20T01:28:48.193Z,92.57
2017-01-20T01:29:48.147Z,92.95
2017-01-20T01:30:48.100Z,93.13
2017-01-20T01:31:48.053Z,92.95
2017-01-20T01:32:48.007Z,92.47
2017-01-20T01:33:47.960Z,93.04
2017-01-20T01:34:47.913Z,92.95
2017-01-20T01:35:47.867Z,93.04
2017-01-20T01:36:47.819Z,92.76
2017-01-20T01:37:47.771Z,92.66
2017-01-20T01:38:47.726Z,92.76
2017-01-20T01:39:47.678Z,92.66
2017-01-20T01:40:47.633Z,93.04
2017-01-20T01:41:47.587Z,93.13
2017-01-20T01:42:47.539Z,92.85
2017-01-20T01:43:47.493Z,92.66
2017-01-20T01:44:47.446Z,92.85
2017-01-20T01:45:47.400Z,92.66
2017-01-20T01:46:47.352Z,92.95
2017-01-20T01:47:47.305Z,92.95
2017-01-20T01:48:47.260Z,92.95
2017-01-20T01:49:47.213Z,92.95
2017-01-20T01:50:47.165Z,92.95
2017-01-20T01:51:47.117Z,93.04
2017-01-20T01:52:47.072Z,93.23
2017-01-20T01:53:47.024Z,92.66
2017-01-20T01:54:46.977Z,92.85
2017-01-20T01:55:46.933Z,92.66
2017-01-20T01:56:46.884Z,92.85
2017-01-20T01:57:46.837Z,93.23
2017-01-20T01:58:46.789Z,92.95
2017-01-20T01:59:46.743Z,93.04
2017-01-20T02:00:46.697Z,93.04
2017-01-20T02:01:46.649Z,92.66
2017-01-20T02:02:46.603Z,92.85
2017-01-20T02:03:46.556Z,92.76
2017-01-20T02:04:46.510Z,92.85
2017-01-20T02:05:46.462Z,92.76
2017-01-20T02:06:46.416Z,92.66
2017-01-20T02:07:46.367Z,92.85
2017-01-20T02:08:46.321Z,92.95
2017-01-20T02:09:46.275Z,92.66
2017-01-20T02:10:46.228Z,93.42
2017-01-20T02:11:46.182Z,93.23
2017-01-20T02:12:46.135Z,93.51
2017-01-20T02:13:46.089Z,93.32
2017-01-20T02:14:46.043Z,93.42
2017-01-20T02:15:45.994Z,93.42
2017-01-20T02:16:45.947Z,93.51
2017-01-20T02:17:45.901Z,93.51
2017-01-20T02:18:45.853Z,93.61
2017-01-20T02:19:45.805Z,93.51
2017-01-20T02:20:45.760Z,93.51
2017-01-20T02:21:45.711Z,93.61
2017-01-20T02:22:45.666Z,93.42
2017-01-20T02:23:45.619Z,93.42
2017-01-20T02:24:45.573Z,93.42
2017-01-20T02:25:45.525Z,93.61
2017-01-20T02:26:45.477Z,93.23
2017-01-20T02:27:45.431Z,93.7
2017-01-20T02:28:45.384Z,93.79
2017-01-20T02:29:45.338Z,93.98
2017-01-20T02:30:45.292Z,93.98
2017-01-20T02:31:45.244Z,93.7
2017-01-20T02:32:45.196Z,93.51
2017-01-20T02:33:45.149Z,93.61
2017-01-20T02:34:45.102Z,93.79
2017-01-20T02:35:45.055Z,94.17
2017-01-20T02:36:45.008Z,93.89
2017-01-20T02:37:44.961Z,94.08
2017-01-20T02:38:44.914Z,93.7
2017-01-20T02:39:44.868Z,93.89
2017-01-20T02:40:44.819Z,93.79
2017-01-20T02:41:44.773Z,93.79
2017-01-20T02:42:44.733Z,93.98
2017-01-20T02:43:44.679Z,93.89
2017-01-20T02:44:44.631Z,94.08
2017-01-20T02:45:44.585Z,93.7
2017-01-20T02:46:44.539Z,94.55
2017-01-20T02:47:44.491Z,94.36
2017-01-20T02:48:44.442Z,94.27
2017-01-20T02:49:44.397Z,94.17
2017-01-20T02:50:44.350Z,94.64
2017-01-20T02:51:44.303Z,94.27
2017-01-20T02:52:44.254Z,94.74
2017-01-20T02:53:44.209Z,94.45
2017-01-20T02:54:44.161Z,95.21
2017-01-20T02:55:44.113Z,94.93
2017-01-20T02:56:44.066Z,95.68
2017-01-20T02:57:44.020Z,94.93
2017-01-20T02:58:43.972Z,94.45
2017-01-20T02:59:43.924Z,93.89
2017-01-20T03:00:43.878Z,94.27
2017-01-20T03:01:43.832Z,93.7
2017-01-20T03:02:43.784Z,93.51
2017-01-20T03:03:43.737Z,93.42
2017-01-20T03:04:43.691Z,93.61
2017-01-20T03:05:43.643Z,93.79
2017-01-20T03:06:43.596Z,93.61
2017-01-20T03:07:43.548Z,93.32
2017-01-20T03:08:43.503Z,93.42
2017-01-20T03:09:43.456Z,93.61
2017-01-20T03:10:43.410Z,93.98
2017-01-20T03:11:43.360Z,93.89
2017-01-20T03:12:43.320Z,93.98
2017-01-20T03:13:43.267Z,93.61
2017-01-20T03:14:43.219Z,93.42
2017-01-20T03:15:43.173Z,93.61
2017-01-20T03:16:43.124Z,93.61
2017-01-20T03:17:43.077Z,93.61
2017-01-20T03:18:43.029Z,93.89
2017-01-20T03:19:42.996Z,93.61
2017-01-20T03:20:42.955Z,93.98
2017-01-20T03:21:42.889Z,93.79
2017-01-20T03:22:42.843Z,93.98
2017-01-20T03:23:42.795Z,94.27
2017-01-20T03:24:42.749Z,93.89
2017-01-20T03:25:42.700Z,93.89
2017-01-20T03:26:42.653Z,94.27
2017-01-20T03:27:42.608Z,94.17
2017-01-20T03:28:42.558Z,94.17
2017-01-20T03:29:42.512Z,94.27
2017-01-20T03:30:42.464Z,94.17
2017-01-20T03:31:42.419Z,94.17
2017-01-20T03:32:42.371Z,94.08
2017-01-20T03:33:42.322Z,94.17
2017-01-20T03:34:42.276Z,94.45
2017-01-20T03:35:42.231Z,94.45
2017-01-20T03:36:42.181Z,94.83
2017-01-20T03:37:42.135Z,94.74
2017-01-20T03:38:42.089Z,94.08
2017-01-20T03:39:42.041Z,94.45
2017-01-20T03:40:41.993Z,94.64
2017-01-20T03:41:41.946Z,94.64
2017-01-20T03:42:41.899Z,94.64
2017-01-20T03:43:41.850Z,94.45
2017-01-20T03:44:41.804Z,94.83
2017-01-20T03:45:41.757Z,94.64
2017-01-20T03:46:41.711Z,95.4
2017-01-20T03:47:41.664Z,95.02
2017-01-20T03:48:41.617Z,95.02
2017-01-20T03:49:41.570Z,94.45
2017-01-20T03:50:41.521Z,95.3
2017-01-20T03:51:41.475Z,94.55
2017-01-20T03:52:41.428Z,94.45
2017-01-20T03:53:41.385Z,94.74
2017-01-20T03:54:41.334Z,94.64
2017-01-20T03:55:41.286Z,94.64
2017-01-20T03:56:41.238Z,94.64
2017-01-20T03:57:41.192Z,94.74
2017-01-20T03:58:41.149Z,94.74
2017-01-20T03:59:41.097Z,94.83
2017-01-20T04:00:41.051Z,94.93
2017-01-20T04:01:41.003Z,95.21
2017-01-20T04:02:40.957Z,95.21
2017-01-20T04:03:40.909Z,95.3
2017-01-20T04:04:40.863Z,95.02
2017-01-20T04:05:40.814Z,95.11
2017-01-20T04:06:40.767Z,94.93
2017-01-20T04:07:40.720Z,94.64
2017-01-20T04:08:40.670Z,94.83
2017-01-20T04:09:40.624Z,94.83
2017-01-20T04:10:40.578Z,95.02
2017-01-20T04:11:40.531Z,95.02
2017-01-20T04:12:40.482Z,95.02
2017-01-20T04:13:40.434Z,95.3
2017-01-20T04:14:40.388Z,95.11
2017-01-20T04:15:40.341Z,94.64
2017-01-20T04:16:40.293Z,95.02
2017-01-20T04:17:40.246Z,95.49
2017-01-20T04:18:40.198Z,95.21
2017-01-20T04:19:40.151Z,95.3
2017-01-20T04:20:40.104Z,95.02
2017-01-20T04:21:40.057Z,94.83
2017-01-20T04:22:40.012Z,95.02
2017-01-20T04:23:39.962Z,94.83
2017-01-20T04:24:39.914Z,94.83
2017-01-20T04:25:39.868Z,95.21
2017-01-20T04:26:39.820Z,95.02
2017-01-20T04:27:39.772Z,95.21
2017-01-20T04:28:39.726Z,95.21
2017-01-20T04:29:39.679Z,95.02
2017-01-20T04:30:39.630Z,95.3
2017-01-20T04:31:39.585Z,95.49
2017-01-20T04:32:39.536Z,95.68
2017-01-20T04:33:39.491Z,95.87
2017-01-20T04:34:39.442Z,95.68
2017-01-20T04:35:39.395Z,95.59
2017-01-20T04:36:39.350Z,95.77
2017-01-20T04:37:39.304Z,95.68
2017-01-20T04:38:39.251Z,95.77
2017-01-20T04:39:39.205Z,95.59
2017-01-20T04:40:39.159Z,95.4
2017-01-20T04:41:39.112Z,95.4
2017-01-20T04:42:39.063Z,95.3
2017-01-20T04:43:39.016Z,95.3
2017-01-20T04:44:38.969Z,95.59
2017-01-20T04:45:38.922Z,95.02
2017-01-20T04:46:38.875Z,94.83
2017-01-20T04:47:38.829Z,95.02
2017-01-20T04:48:38.784Z,95.02
2017-01-20T04:49:38.736Z,95.3
2017-01-20T04:50:38.687Z,95.21
2017-01-20T04:51:38.642Z,94.83
2017-01-20T04:52:38.594Z,94.55
2017-01-20T04:53:38.545Z,94.74
2017-01-20T04:54:38.500Z,94.36
2017-01-20T04:55:38.453Z,94.08
2017-01-20T04:56:38.406Z,93.89
2017-01-20T04:57:38.360Z,93.79
2017-01-20T04:58:38.313Z,93.89
2017-01-20T04:59:38.267Z,93.98
2017-01-20T05:00:38.219Z,93.7
2017-01-20T05:01:38.172Z,93.89
2017-01-20T05:02:38.126Z,93.7
2017-01-20T05:03:38.084Z,94.17
2017-01-20T05:04:38.032Z,94.45
2017-01-20T05:05:37.985Z,94.27
2017-01-20T05:06:37.940Z,94.36
2017-01-20T05:07:37.893Z,94.27
2017-01-20T05:08:37.845Z,93.98
2017-01-20T05:09:37.801Z,94.17
2017-01-20T05:10:37.753Z,93.98
2017-01-20T05:11:37.706Z,93.89
2017-01-20T05:12:37.660Z,94.17
2017-01-20T05:13:37.614Z,94.13
2017-01-20T05:14:37.567Z,94.17
2017-01-20T05:15:37.519Z,93.94
2017-01-20T05:16:37.474Z,93.94
2017-01-20T05:17:37.430Z,93.65
2017-01-20T05:18:37.379Z,94.03
2017-01-20T05:19:37.332Z,93.89
2017-01-20T05:20:37.288Z,93.56
2017-01-20T05:21:37.240Z,93.84
2017-01-20T05:22:37.195Z,94.13
2017-01-20T05:23:37.149Z,93.94
2017-01-20T05:24:37.103Z,94.03
2017-01-20T05:25:37.056Z,93.37
2017-01-20T05:26:37.009Z,93.28
2017-01-20T05:27:36.962Z,92.8
2017-01-20T05:28:36.916Z,92.24
2017-01-20T05:29:36.869Z,92.52
2017-01-20T05:30:36.823Z,92.43
2017-01-20T05:31:36.778Z,92.43
2017-01-20T05:32:36.730Z,92.05
2017-01-20T05:33:36.687Z,91.86
2017-01-20T05:34:36.636Z,92.14
2017-01-20T05:35:36.593Z,91.77
2017-01-20T05:36:36.545Z,92.14
2017-01-20T05:37:36.497Z,91.96
2017-01-20T05:38:36.452Z,91.96
2017-01-20T05:39:36.406Z,92.05
2017-01-20T05:40:36.359Z,91.3
2017-01-20T05:41:36.312Z,91.67
2017-01-20T05:42:36.267Z,91.49
2017-01-20T05:43:36.220Z,91.2
2017-01-20T05:44:36.173Z,91.67
2017-01-20T05:45:36.126Z,91.39
2017-01-20T05:46:36.081Z,91.67
2017-01-20T05:47:36.034Z,91.39
2017-01-20T05:48:35.988Z,91.11
2017-01-20T05:49:35.944Z,91.11
2017-01-20T05:50:35.895Z,90.92
2017-01-20T05:51:35.849Z,91.02
2017-01-20T05:52:35.803Z,91.11
2017-01-20T05:53:35.755Z,90.73
2017-01-20T05:54:35.708Z,90.92
2017-01-20T05:55:35.662Z,90.92
2017-01-20T05:56:35.617Z,91.02
2017-01-20T05:57:35.570Z,91.02
2017-01-20T05:58:35.522Z,90.64
2017-01-20T05:59:35.476Z,91.49
2017-01-20T06:00:35.431Z,91.2
2017-01-20T06:01:35.385Z,91.49
2017-01-20T06:02:35.337Z,91.49
2017-01-20T06:03:35.291Z,91.49
2017-01-20T06:04:35.246Z,91.49
2017-01-20T06:05:35.198Z,91.77
2017-01-20T06:06:35.152Z,91.39
2017-01-20T06:07:35.107Z,91.49
2017-01-20T06:08:35.060Z,91.2
2017-01-20T06:09:35.013Z,91.39
2017-01-20T06:10:34.967Z,91.58
2017-01-20T06:11:34.921Z,91.11
2017-01-20T06:12:34.876Z,91.3
2017-01-20T06:13:34.827Z,91.2
2017-01-20T06:14:34.783Z,91.2
2017-01-20T06:15:34.738Z,91.2
2017-01-20T06:16:34.689Z,91.11
2017-01-20T06:17:34.651Z,91.2
2017-01-20T06:18:34.596Z,91.2
2017-01-20T06:19:34.550Z,91.2
2017-01-20T06:20:34.505Z,91.3
2017-01-20T06:21:34.458Z,91.2
2017-01-20T06:22:34.420Z,91.2
2017-01-20T06:23:34.367Z,91.02
2017-01-20T06:24:34.317Z,90.92
2017-01-20T06:25:34.278Z,90.92
2017-01-20T06:26:34.227Z,91.11
2017-01-20T06:27:34.181Z,90.92
2017-01-20T06:28:34.133Z,91.2
2017-01-20T06:29:34.088Z,90.83
2017-01-20T06:30:34.043Z,90.92
2017-01-20T06:31:33.995Z,91.11
2017-01-20T06:32:33.949Z,90.73
2017-01-20T06:33:33.907Z,90.83
2017-01-20T06:34:33.867Z,91.02
2017-01-20T06:35:33.811Z,90.92
2017-01-20T06:36:33.764Z,90.92
2017-01-20T06:37:33.720Z,90.64
2017-01-20T06:38:33.674Z,90.64
2017-01-20T06:39:33.627Z,91.02
2017-01-20T06:40:33.582Z,91.02
2017-01-20T06:41:33.534Z,91.3
2017-01-20T06:42:33.502Z,90.92
2017-01-20T06:43:33.443Z,91.11
2017-01-20T06:44:33.397Z,90.83
2017-01-20T06:45:33.353Z,91.02
2017-01-20T06:46:33.304Z,90.64
2017-01-20T06:47:33.260Z,90.64
2017-01-20T06:48:33.212Z,90.73
2017-01-20T06:49:33.165Z,91.02
2017-01-20T06:50:33.141Z,91.02
2017-01-20T06:51:33.074Z,91.02
2017-01-20T06:52:33.029Z,90.92
2017-01-20T06:53:32.983Z,90.92
2017-01-20T06:54:32.938Z,91.02
2017-01-20T06:55:32.892Z,90.83
2017-01-20T06:56:32.845Z,90.73
2017-01-20T06:57:32.799Z,91.11
2017-01-20T06:58:32.754Z,90.92
2017-01-20T06:59:32.708Z,91.02
2017-01-20T07:00:32.661Z,90.73
2017-01-20T07:01:32.615Z,91.02
2017-01-20T07:02:32.571Z,90.92
2017-01-20T07:03:32.524Z,91.02
2017-01-20T07:04:32.478Z,91.11
2017-01-20T07:05:32.431Z,90.92
2017-01-20T07:06:32.386Z,90.83
2017-01-20T07:07:32.338Z,91.11
2017-01-20T07:08:32.293Z,91.02
2017-01-20T07:09:32.247Z,91.11
2017-01-20T07:10:32.202Z,90.08
2017-01-20T07:11:32.155Z,90.45
2017-01-20T07:12:32.111Z,90.55
2017-01-20T07:13:32.063Z,90.64
2017-01-20T07:14:32.018Z,90.17
2017-01-20T07:15:31.972Z,90.64
2017-01-20T07:16:31.925Z,90.36
2017-01-20T07:17:31.881Z,90.36
2017-01-20T07:18:31.833Z,90.36
2017-01-20T07:19:31.788Z,90.26
2017-01-20T07:20:31.741Z,90.45
2017-01-20T07:21:31.696Z,90.55
2017-01-20T07:22:31.649Z,90.17
2017-01-20T07:23:31.603Z,90.45
2017-01-20T07:24:31.558Z,90.08
2017-01-20T07:25:31.511Z,90.26
2017-01-20T07:26:31.467Z,90.08
2017-01-20T07:27:31.426Z,90.36
2017-01-20T07:28:31.375Z,90.17
2017-01-20T07:29:31.328Z,90.26
2017-01-20T07:30:31.282Z,90.17
2017-01-20T07:31:31.236Z,90.36
2017-01-20T07:32:31.196Z,90.36
2017-01-20T07:33:31.145Z,90.26
2017-01-20T07:34:31.099Z,90.36
2017-01-20T07:35:31.053Z,90.45
2017-01-20T07:36:31.010Z,90.17
2017-01-20T07:37:30.962Z,89.89
2017-01-20T07:38:30.916Z,89.79
2017-01-20T07:39:30.870Z,89.93
2017-01-20T07:40:30.825Z,90.31
2017-01-20T07:41:30.778Z,90.03
2017-01-20T07:42:30.733Z,89.98
2017-01-20T07:43:30.687Z,89.56
2017-01-20T07:44:30.640Z,89.84
2017-01-20T07:45:30.595Z,89.37
2017-01-20T07:46:30.551Z,89.93
2017-01-20T07:47:30.505Z,89.56
2017-01-20T07:48:30.458Z,89.18
2017-01-20T07:49:30.412Z,89.32
2017-01-20T07:50:30.366Z,89.04
2017-01-20T07:51:30.321Z,88.76
2017-01-20T07:52:30.275Z,88.57
2017-01-20T07:53:30.229Z,88.76
2017-01-20T07:54:30.185Z,89.32
2017-01-20T07:55:30.136Z,88.85
2017-01-20T07:56:30.091Z,88.38
2017-01-20T07:57:30.045Z,88.33
2017-01-20T07:58:30.000Z,88.57
2017-01-20T07:59:29.953Z,88.61
2017-01-20T08:00:30.443Z,88.33
2017-01-20T08:01:30.398Z,88.42
2017-01-20T08:02:30.352Z,87.81
2017-01-20T08:03:30.310Z,88.19
2017-01-20T08:04:30.266Z,88.33
2017-01-20T08:05:30.219Z,87.86
2017-01-20T08:06:30.173Z,88.04
2017-01-20T08:07:30.125Z,88.04
2017-01-20T08:08:29.695Z,87.95
2017-01-20T08:09:30.040Z,87.76
2017-01-20T08:10:29.992Z,87.38
2017-01-20T08:11:29.561Z,87.29
2017-01-20T08:12:29.897Z,87.1
2017-01-20T08:13:29.869Z,87.1
2017-01-20T08:14:29.802Z,86.91
2017-01-20T08:15:29.756Z,86.91
2017-01-20T08:16:29.712Z,86.72
2017-01-20T08:17:29.666Z,87.01
2017-01-20T08:18:29.619Z,86.72
2017-01-20T08:19:29.590Z,86.72
2017-01-20T08:20:29.528Z,86.91
2017-01-20T08:21:29.481Z,86.16
2017-01-20T08:22:29.048Z,86.07
2017-01-20T08:23:29.389Z,86.07
2017-01-20T08:24:28.960Z,86.25
2017-01-20T08:25:28.911Z,86.35
2017-01-20T08:26:29.252Z,86.25
2017-01-20T08:27:29.210Z,86.44
2017-01-20T08:28:29.157Z,85.88
2017-01-20T08:29:29.119Z,85.78
2017-01-20T08:30:29.070Z,85.78
2017-01-20T08:31:29.023Z,85.97
2017-01-20T08:32:28.980Z,85.97
2017-01-20T08:33:28.932Z,85.88
2017-01-20T08:34:28.885Z,86.35
2017-01-20T08:35:28.839Z,86.54
2017-01-20T08:36:28.792Z,86.35
2017-01-20T08:37:28.748Z,85.5
2017-01-20T08:38:28.702Z,85.88
2017-01-20T08:39:28.272Z,85.69
2017-01-20T08:40:28.609Z,85.78
2017-01-20T08:41:28.569Z,85.5
2017-01-20T08:42:28.516Z,85.78
2017-01-20T08:43:28.474Z,85.88
2017-01-20T08:44:28.428Z,85.31
2017-01-20T08:45:28.382Z,85.31
2017-01-20T08:46:27.947Z,85.41
2017-01-20T08:47:28.289Z,85.78
2017-01-20T08:48:28.245Z,85.78
2017-01-20T08:49:27.813Z,85.69
2017-01-20T08:50:28.179Z,85.69
2017-01-20T08:51:28.110Z,85.78
2017-01-20T08:52:28.060Z,85.78
2017-01-20T08:53:28.016Z,85.41
2017-01-20T08:54:27.972Z,85.13
2017-01-20T08:55:27.924Z,85.13
2017-01-20T08:56:27.880Z,85.41
2017-01-20T08:57:27.833Z,85.31
2017-01-20T08:58:27.405Z,85.41
2017-01-20T08:59:27.746Z,85.03
2017-01-20T09:00:27.313Z,85.03
2017-01-20T09:01:27.653Z,85.31
2017-01-20T09:02:27.608Z,85.03
2017-01-20T09:03:27.561Z,85.22
2017-01-20T09:04:27.515Z,85.31
2017-01-20T09:05:27.469Z,84.94
2017-01-20T09:06:27.421Z,84.84
2017-01-20T09:07:27.404Z,84.75
2017-01-20T09:08:27.337Z,84.75
2017-01-20T09:09:26.899Z,84.84
2017-01-20T09:10:27.246Z,84.84
2017-01-20T09:11:27.198Z,84.6
2017-01-20T09:12:27.154Z,84.32
2017-01-20T09:13:27.105Z,84.18
2017-01-20T09:14:26.674Z,84.56
2017-01-20T09:15:27.020Z,84.13
2017-01-20T09:16:26.971Z,84.03
2017-01-20T09:17:26.539Z,83.56
2017-01-20T09:18:26.881Z,83.56
2017-01-20T09:19:26.835Z,83.84
2017-01-20T09:20:26.786Z,82.81
2017-01-20T09:21:26.376Z,83.94
2017-01-20T09:22:26.711Z,83.84
2017-01-20T09:23:26.654Z,83.65
2017-01-20T09:24:26.610Z,82.53
2017-01-20T09:25:26.564Z,84.03
2017-01-20T09:26:26.131Z,83.37
2017-01-20T09:27:26.471Z,83.18
2017-01-20T09:28:26.041Z,83.65
2017-01-20T09:29:26.383Z,82.9
2017-01-20T09:30:25.955Z,83
2017-01-20T09:31:25.914Z,82.81
2017-01-20T09:32:26.249Z,82.43
2017-01-20T09:33:25.831Z,81.77
2017-01-20T09:34:26.157Z,81.96
2017-01-20T09:35:26.112Z,81.68
2017-01-20T09:36:25.683Z,81.96
2017-01-20T09:37:26.028Z,81.58
2017-01-20T09:38:25.977Z,81.58
2017-01-20T09:39:25.547Z,81.4
2017-01-20T09:40:25.889Z,81.3
2017-01-20T09:41:25.845Z,81.02
2017-01-20T09:42:25.797Z,80.36
2017-01-20T09:43:25.751Z,80.73
2017-01-20T09:44:25.710Z,80.73
2017-01-20T09:45:25.666Z,80.36
2017-01-20T09:46:25.620Z,80.64
2017-01-20T09:47:25.573Z,80.45
2017-01-20T09:48:25.527Z,80.36
2017-01-20T09:49:25.483Z,80.83
2017-01-20T09:50:25.439Z,80.64
2017-01-20T09:51:25.010Z,80.73
2017-01-20T09:52:24.963Z,80.45
2017-01-20T09:53:24.919Z,80.92
2017-01-20T09:54:25.261Z,80.36
2017-01-20T09:55:25.212Z,80.73
2017-01-20T09:56:25.167Z,80.54
2017-01-20T09:57:25.123Z,79.79
2017-01-20T09:58:25.083Z,79.6
2017-01-20T09:59:25.035Z,79.41
2017-01-20T10:00:24.988Z,80.17
2017-01-20T10:01:24.946Z,79.88
2017-01-20T10:02:24.902Z,79.69
2017-01-20T10:03:24.469Z,79.69
2017-01-20T10:04:24.845Z,79.79
2017-01-20T10:05:24.380Z,79.69
2017-01-20T10:06:24.364Z,79.5
2017-01-20T10:07:24.679Z,79.32
2017-01-20T10:08:24.637Z,79.98
2017-01-20T10:09:24.589Z,79.32
2017-01-20T10:10:24.541Z,79.79
2017-01-20T10:11:24.496Z,79.22
2017-01-20T10:12:24.066Z,79.22
2017-01-20T10:13:24.408Z,79.6
2017-01-20T10:14:23.975Z,79.5
2017-01-20T10:15:24.319Z,79.22
2017-01-20T10:16:24.272Z,79.22
2017-01-20T10:17:24.257Z,78.75
2017-01-20T10:18:24.183Z,78.85
2017-01-20T10:19:24.139Z,78.56
2017-01-20T10:20:24.097Z,78.75
2017-01-20T10:21:24.050Z,78.75
2017-01-20T10:22:24.004Z,79.22
2017-01-20T10:23:23.960Z,79.69
2017-01-20T10:24:23.914Z,79.41
2017-01-20T10:25:23.872Z,79.88
2017-01-20T10:26:23.439Z,78.94
2017-01-20T10:27:23.779Z,78.56
2017-01-20T10:28:23.348Z,78.85
2017-01-20T10:29:23.694Z,79.22
2017-01-20T10:30:23.644Z,79.41
2017-01-20T10:31:23.602Z,78.66
2017-01-20T10:32:23.169Z,78.75
2017-01-20T10:33:23.123Z,79.13
2017-01-20T10:34:23.467Z,79.32
2017-01-20T10:35:23.423Z,79.22
2017-01-20T10:36:22.991Z,79.03
2017-01-20T10:37:22.945Z,79.5
2017-01-20T10:38:22.900Z,79.6
2017-01-20T10:39:23.241Z,79.41
2017-01-20T10:40:23.196Z,79.41
2017-01-20T10:41:23.153Z,79.69
2017-01-20T10:42:23.106Z,79.69
2017-01-20T10:43:23.060Z,79.69
2017-01-20T10:44:23.020Z,79.5
2017-01-20T10:45:22.971Z,79.6
2017-01-20T10:46:22.925Z,79.41
2017-01-20T10:47:22.881Z,79.5
2017-01-20T10:48:22.456Z,79.32
2017-01-20T10:49:22.789Z,79.32
2017-01-20T10:50:22.752Z,79.6
2017-01-20T10:51:22.704Z,79.69
2017-01-20T10:52:22.660Z,79.41
2017-01-20T10:53:22.611Z,79.5
2017-01-20T10:54:22.567Z,79.13
2017-01-20T10:55:22.137Z,79.32
2017-01-20T10:56:22.480Z,79.13
2017-01-20T10:57:22.432Z,79.32
2017-01-20T10:58:22.005Z,79.41
2017-01-20T10:59:22.341Z,79.41
2017-01-20T11:00:22.297Z,79.69
2017-01-20T11:01:22.253Z,79.79
2017-01-20T11:02:21.824Z,80.54
2017-01-20T11:03:21.780Z,80.36
2017-01-20T11:04:22.123Z,80.07
2017-01-20T11:05:21.686Z,80.36
2017-01-20T11:06:22.027Z,79.79
2017-01-20T11:07:21.985Z,80.54
2017-01-20T11:08:21.944Z,80.36
2017-01-20T11:09:21.897Z,81.21
2017-01-20T11:10:21.848Z,81.77
2017-01-20T11:11:21.803Z,82.15
2017-01-20T11:12:21.760Z,82.06
2017-01-20T11:13:21.327Z,81.77
2017-01-20T11:14:21.678Z,81.68
2017-01-20T11:15:21.623Z,82.34
2017-01-20T11:16:21.193Z,82.53
2017-01-20T11:17:21.535Z,82.43
2017-01-20T11:18:21.489Z,82.53
2017-01-20T11:19:21.442Z,82.43
2017-01-20T11:20:21.398Z,82.81
2017-01-20T11:21:21.354Z,82.71
2017-01-20T11:22:21.308Z,82.43
2017-01-20T11:23:21.263Z,82.71
2017-01-20T11:24:20.832Z,82.53
2017-01-20T11:25:21.177Z,82.24
2017-01-20T11:26:21.129Z,81.49
2017-01-20T11:27:21.084Z,81.4
2017-01-20T11:28:20.658Z,80.45
2017-01-20T11:29:20.610Z,80.26
2017-01-20T11:30:20.950Z,80.64
2017-01-20T11:31:20.521Z,80.26
2017-01-20T11:32:20.880Z,79.79
2017-01-20T11:33:20.816Z,79.79
2017-01-20T11:34:20.768Z,79.22
2017-01-20T11:35:20.725Z,79.41
2017-01-20T11:36:20.684Z,79.5
2017-01-20T11:37:20.642Z,79.5
2017-01-20T11:38:20.591Z,79.13
2017-01-20T11:39:20.547Z,79.13
2017-01-20T11:40:20.116Z,79.22
2017-01-20T11:41:20.072Z,79.03
2017-01-20T11:42:20.415Z,79.13
2017-01-20T11:43:20.367Z,78.56
2017-01-20T11:44:20.326Z,79.03
2017-01-20T11:45:20.277Z,78.66
2017-01-20T11:46:20.233Z,78.66
2017-01-20T11:47:20.194Z,78.28
2017-01-20T11:48:20.145Z,78.38
2017-01-20T11:49:20.100Z,78.85
2017-01-20T11:50:20.054Z,78.75
2017-01-20T11:51:20.012Z,78.85
2017-01-20T11:52:19.969Z,78.85
2017-01-20T11:53:19.537Z,78.75
2017-01-20T11:54:19.879Z,78.56
2017-01-20T11:55:19.837Z,78.66
2017-01-20T11:56:19.789Z,78.75
2017-01-20T11:57:19.356Z,78.38
2017-01-20T11:58:19.697Z,78.66
2017-01-20T11:59:19.654Z,78.47
2017-01-20T12:00:19.606Z,78.28
2017-01-20T12:01:19.565Z,78.94
2017-01-20T12:02:19.518Z,78.66
2017-01-20T12:03:19.473Z,78.56
2017-01-20T12:04:19.428Z,78.66
2017-01-20T12:05:19.383Z,79.41
2017-01-20T12:06:19.340Z,79.13
2017-01-20T12:07:19.293Z,79.32
2017-01-20T12:08:19.253Z,79.32
2017-01-20T12:09:19.212Z,79.6
2017-01-20T12:10:19.156Z,79.22
2017-01-20T12:11:19.113Z,79.22
2017-01-20T12:12:19.066Z,79.13
2017-01-20T12:13:19.024Z,79.32
2017-01-20T12:14:18.977Z,78.85
2017-01-20T12:15:18.934Z,78.85
2017-01-20T12:16:18.887Z,78.75
2017-01-20T12:17:18.847Z,78.56
2017-01-20T12:18:18.799Z,78.47
2017-01-20T12:19:18.752Z,78.56
2017-01-20T12:20:18.322Z,78.38
2017-01-20T12:21:18.661Z,78.85
2017-01-20T12:22:18.618Z,78.19
2017-01-20T12:23:18.187Z,78.47
2017-01-20T12:24:18.527Z,78.75
2017-01-20T12:25:18.481Z,78.85
2017-01-20T12:26:18.435Z,78.38
2017-01-20T12:27:18.392Z,78.56
2017-01-20T12:28:18.347Z,79.03
2017-01-20T12:29:18.301Z,78.56
2017-01-20T12:30:18.259Z,78.47
2017-01-20T12:31:18.214Z,78.94
2017-01-20T12:32:18.171Z,78.56
2017-01-20T12:33:18.121Z,78.94
2017-01-20T12:34:18.074Z,78.66
2017-01-20T12:35:18.032Z,78.56
2017-01-20T12:36:17.601Z,78.75
2017-01-20T12:37:17.940Z,78.56
2017-01-20T12:38:17.511Z,78.66
2017-01-20T12:39:17.853Z,78.38
2017-01-20T12:40:17.422Z,78.28
2017-01-20T12:41:17.376Z,78.47
2017-01-20T12:42:17.720Z,78.28
2017-01-20T12:43:17.673Z,78.85
2017-01-20T12:44:17.245Z,78.28
2017-01-20T12:45:17.194Z,78.19
2017-01-20T12:46:17.155Z,78.47
2017-01-20T12:47:17.494Z,78.47
2017-01-20T12:48:17.446Z,78.19
2017-01-20T12:49:17.411Z,78
2017-01-20T12:50:17.363Z,77.53
2017-01-20T12:51:16.928Z,77.72
2017-01-20T12:52:17.276Z,77.81
2017-01-20T12:53:17.261Z,78.09
2017-01-20T12:54:17.179Z,78
2017-01-20T12:55:17.132Z,77.72